createdAt,value
2018-04-22T00:00:29.883Z,58.90
2018-04-22T00:02:58.935Z,59.20
2018-04-22T00:05:27.179Z,59.20
2018-04-22T00:07:55.453Z,59.00
2018-04-22T00:10:23.716Z,59.10
2018-04-22T00:12:51.987Z,58.70
2018-04-22T00:15:20.235Z,59.60
2018-04-22T00:17:48.492Z,59.90
2018-04-22T00:20:16.788Z,59.80
2018-04-22T00:22:45.903Z,59.80
2018-04-22T00:25:14.135Z,59.80
2018-04-22T00:27:44.058Z,59.70
2018-04-22T00:30:13.120Z,60.90
2018-04-22T00:32:42.676Z,60.80
2018-04-22T00:35:10.915Z,60.10
2018-04-22T00:37:39.176Z,60.50
2018-04-22T00:40:08.002Z,59.90
2018-04-22T00:42:36.584Z,60.10
2018-04-22T00:45:04.831Z,60.20
2018-04-22T00:47:33.760Z,60.50
2018-04-22T00:50:02.238Z,61.00
2018-04-22T00:52:30.488Z,61.70
2018-04-22T00:54:58.755Z,61.00
2018-04-22T00:57:26.995Z,61.00
2018-04-22T00:59:55.253Z,61.20
2018-04-22T01:02:23.500Z,61.90
2018-04-22T01:04:51.828Z,61.50
2018-04-22T01:07:20.099Z,62.80
2018-04-22T01:09:48.371Z,62.10
2018-04-22T01:12:16.618Z,62.70
2018-04-22T01:14:45.649Z,63.30
2018-04-22T01:17:13.871Z,62.50
2018-04-22T01:19:42.132Z,63.60
2018-04-22T01:22:10.364Z,63.70
2018-04-22T01:24:38.639Z,63.50
2018-04-22T01:27:07.661Z,64.40
2018-04-22T01:29:35.927Z,64.30
2018-04-22T01:32:04.213Z,64.20
2018-04-22T01:34:32.519Z,65.20
2018-04-22T01:37:00.768Z,65.20
2018-04-22T01:39:29.037Z,64.70
2018-04-22T01:41:58.311Z,64.10
2018-04-22T01:44:27.200Z,63.90
2018-04-22T01:46:56.333Z,64.10
2018-04-22T01:49:25.458Z,65.70
2018-04-22T01:51:53.774Z,65.70
2018-04-22T01:54:22.059Z,64.70
2018-04-22T01:56:50.284Z,65.00
2018-04-22T01:59:19.312Z,64.50
2018-04-22T02:01:47.574Z,64.40
2018-04-22T02:04:16.588Z,65.20
2018-04-22T02:06:45.595Z,65.20
2018-04-22T02:09:13.853Z,65.30
2018-04-22T02:11:42.799Z,65.50
2018-04-22T02:14:11.055Z,65.70
2018-04-22T02:16:39.324Z,65.90
2018-04-22T02:19:07.585Z,65.90
2018-04-22T02:21:36.824Z,66.60
2018-04-22T02:24:05.277Z,66.60
2018-04-22T02:26:34.548Z,66.00
2018-04-22T02:29:02.827Z,66.00
2018-04-22T02:31:31.089Z,67.00
2018-04-22T02:33:59.348Z,66.20
2018-04-22T02:36:27.595Z,67.10
2018-04-22T02:38:56.603Z,65.60
2018-04-22T02:41:24.876Z,65.60
2018-04-22T02:43:53.905Z,66.30
2018-04-22T02:46:22.166Z,66.20
2018-04-22T02:48:50.428Z,66.20
2018-04-22T02:51:20.193Z,67.30
2018-04-22T02:53:48.413Z,67.20
2018-04-22T02:56:18.311Z,66.30
2018-04-22T02:58:46.549Z,66.70
2018-04-22T03:01:14.812Z,67.30
2018-04-22T03:03:44.317Z,67.00
2018-04-22T03:06:13.983Z,67.20
2018-04-22T03:08:42.245Z,67.20
2018-04-22T03:11:10.508Z,67.50
2018-04-22T03:13:38.763Z,67.30
2018-04-22T03:16:07.800Z,67.30
2018-04-22T03:18:36.048Z,68.00
2018-04-22T03:21:05.118Z,67.90
2018-04-22T03:23:33.346Z,67.80
2018-04-22T03:26:01.608Z,68.30
2018-04-22T03:28:30.643Z,68.70
2018-04-22T03:30:59.660Z,69.90
2018-04-22T03:33:28.001Z,69.10
2018-04-22T03:35:56.269Z,69.90
2018-04-22T03:38:25.855Z,69.60
2018-04-22T03:40:54.095Z,69.50
2018-04-22T03:43:22.349Z,69.50
2018-04-22T03:45:51.370Z,69.20
2018-04-22T03:48:19.627Z,69.20
2018-04-22T03:50:49.519Z,68.70
2018-04-22T03:53:17.776Z,68.70
2018-04-22T03:55:46.042Z,69.00
2018-04-22T03:58:14.286Z,69.50
2018-04-22T04:00:42.593Z,69.80
2018-04-22T04:03:10.847Z,69.20
2018-04-22T04:05:39.896Z,68.60
2018-04-22T04:08:08.147Z,68.60
2018-04-22T04:10:37.217Z,69.90
2018-04-22T04:13:05.469Z,69.10
2018-04-22T04:15:33.729Z,70.30
2018-04-22T04:21:31.128Z,69.70
2018-04-22T04:27:24.806Z,70.10
2018-04-22T04:29:54.012Z,70.00
2018-04-22T04:32:23.053Z,70.50
2018-04-22T04:34:51.280Z,70.40
2018-04-22T04:37:20.504Z,70.50
2018-04-22T04:39:49.502Z,70.10
2018-04-22T04:42:18.640Z,70.60
2018-04-22T04:44:47.749Z,70.60
2018-04-22T04:47:16.016Z,71.10
2018-04-22T04:49:44.270Z,71.00
2018-04-22T04:52:12.750Z,71.90
2018-04-22T04:54:41.766Z,70.80
2018-04-22T04:57:10.111Z,70.80
2018-04-22T04:59:38.339Z,70.60
2018-04-22T05:02:06.612Z,70.40
2018-04-22T05:04:34.864Z,70.00
2018-04-22T05:07:04.761Z,71.50
2018-04-22T05:09:33.036Z,70.70
2018-04-22T05:12:01.295Z,70.80
2018-04-22T05:14:30.056Z,71.60
2018-04-22T05:16:58.327Z,71.80
2018-04-22T05:19:27.333Z,73.00
2018-04-22T05:21:55.621Z,73.00
2018-04-22T05:24:23.908Z,72.80
2018-04-22T05:26:52.129Z,73.40
2018-04-22T05:29:20.367Z,73.10
2018-04-22T05:31:49.407Z,73.30
2018-04-22T05:34:17.657Z,72.50
2018-04-22T05:36:45.917Z,71.70
2018-04-22T05:39:15.078Z,71.60
2018-04-22T05:41:44.202Z,71.60
2018-04-22T05:44:12.524Z,70.60
2018-04-22T05:46:40.799Z,70.60
2018-04-22T05:49:09.057Z,69.50
2018-04-22T05:51:38.105Z,69.00
2018-04-22T05:54:06.382Z,68.90
2018-04-22T05:56:34.637Z,68.90
2018-04-22T05:59:03.782Z,68.40
2018-04-22T06:01:33.548Z,67.70
2018-04-22T06:04:01.811Z,67.70
2018-04-22T06:06:30.951Z,67.70
2018-04-22T06:08:59.896Z,67.60
2018-04-22T06:11:28.631Z,67.00
2018-04-22T06:13:56.908Z,66.50
2018-04-22T06:16:25.206Z,67.50
2018-04-22T06:18:54.898Z,66.00
2018-04-22T06:21:24.495Z,64.90
2018-04-22T06:23:53.556Z,64.20
2018-04-22T06:26:22.592Z,62.10
2018-04-22T06:28:51.608Z,62.50
2018-04-22T06:31:19.886Z,62.50
2018-04-22T06:33:48.965Z,61.00
2018-04-22T06:36:17.192Z,61.00
2018-04-22T06:38:45.478Z,60.00
2018-04-22T06:41:13.756Z,59.60
2018-04-22T06:43:42.018Z,59.10
2018-04-22T06:46:10.266Z,58.80
2018-04-22T06:48:38.568Z,58.80
2018-04-22T06:51:06.817Z,58.70
2018-04-22T06:53:35.111Z,58.00
2018-04-22T06:56:03.353Z,57.40
2018-04-22T06:58:31.647Z,56.10
2018-04-22T07:00:59.872Z,55.20
2018-04-22T07:03:28.985Z,54.10
2018-04-22T07:05:58.050Z,54.00
2018-04-22T07:08:26.317Z,53.60
2018-04-22T07:10:54.624Z,53.40
2018-04-22T07:13:23.652Z,51.90
2018-04-22T07:15:51.905Z,51.80
2018-04-22T07:18:20.945Z,51.10
2018-04-22T07:20:49.256Z,51.00
2018-04-22T07:23:17.580Z,50.00
2018-04-22T07:25:45.819Z,49.80
2018-04-22T07:28:14.066Z,50.00
2018-04-22T07:30:42.303Z,49.50
2018-04-22T07:33:11.353Z,48.50
2018-04-22T07:35:39.615Z,48.50
2018-04-22T07:38:07.907Z,47.40
2018-04-22T07:40:36.189Z,46.50
2018-04-22T07:43:04.396Z,46.60
2018-04-22T07:45:33.513Z,46.20
2018-04-22T07:48:01.777Z,45.40
2018-04-22T07:50:30.008Z,45.00
2018-04-22T07:52:58.333Z,45.20
2018-04-22T07:55:26.594Z,44.60
2018-04-22T07:57:54.839Z,43.80
2018-04-22T08:00:23.876Z,42.70
2018-04-22T08:02:52.134Z,42.60
2018-04-22T08:05:21.140Z,41.70
2018-04-22T08:07:49.407Z,41.70
2018-04-22T08:10:18.921Z,41.10
2018-04-22T08:12:47.296Z,41.00
2018-04-22T08:15:16.404Z,40.00
2018-04-22T08:17:45.445Z,39.60
2018-04-22T08:20:13.716Z,39.60
2018-04-22T08:22:42.000Z,39.30
2018-04-22T08:25:10.252Z,38.70
2018-04-22T08:27:39.288Z,39.50
2018-04-22T08:30:09.013Z,39.50
2018-04-22T08:32:37.280Z,39.20
2018-04-22T08:35:06.390Z,38.10
2018-04-22T08:37:34.648Z,37.50
2018-04-22T08:40:02.925Z,37.30
2018-04-22T08:42:31.202Z,37.40
2018-04-22T08:44:59.461Z,37.00
2018-04-22T08:47:28.480Z,37.10
2018-04-22T08:49:56.759Z,37.10
2018-04-22T08:52:25.896Z,36.10
2018-04-22T08:54:54.157Z,36.90
2018-04-22T08:57:22.444Z,36.70
2018-04-22T08:59:50.685Z,36.20
2018-04-22T09:02:18.960Z,36.60
2018-04-22T09:04:47.230Z,36.20
2018-04-22T09:07:15.492Z,36.60
2018-04-22T09:09:43.744Z,35.40
2018-04-22T09:12:12.030Z,35.70
2018-04-22T09:14:40.286Z,35.00
2018-04-22T09:17:09.316Z,35.00
2018-04-22T09:19:37.575Z,35.00
2018-04-22T09:22:05.816Z,35.00
2018-04-22T09:24:34.077Z,34.90
2018-04-22T09:27:02.330Z,35.60
2018-04-22T09:29:30.572Z,34.90
2018-04-22T09:31:59.595Z,34.70
2018-04-22T09:34:27.885Z,34.70
2018-04-22T09:36:56.136Z,34.10
2018-04-22T09:39:25.181Z,34.20
2018-04-22T09:41:53.400Z,34.20
2018-04-22T09:44:21.668Z,33.60
2018-04-22T09:46:49.920Z,33.40
2018-04-22T09:49:18.207Z,33.60
2018-04-22T09:51:46.448Z,33.80
2018-04-22T09:54:15.501Z,32.80
2018-04-22T09:56:44.360Z,32.70
2018-04-22T09:59:13.820Z,32.90
2018-04-22T10:01:42.068Z,31.40
2018-04-22T10:04:10.352Z,31.40
2018-04-22T10:06:38.609Z,32.00
2018-04-22T10:09:07.605Z,31.60
2018-04-22T10:11:35.835Z,31.50
2018-04-22T10:14:04.113Z,32.40
2018-04-22T10:16:32.406Z,31.90
2018-04-22T10:19:00.603Z,31.90
2018-04-22T10:21:28.828Z,30.90
2018-04-22T10:23:57.098Z,31.10
2018-04-22T10:26:25.358Z,31.70
2018-04-22T10:28:54.384Z,31.60
2018-04-22T10:31:22.690Z,31.60
2018-04-22T10:33:51.706Z,32.50
2018-04-22T10:36:20.460Z,33.20
2018-04-22T10:38:48.708Z,33.00
2018-04-22T10:41:17.719Z,32.50
2018-04-22T10:43:46.090Z,32.50
2018-04-22T10:46:15.115Z,31.40
2018-04-22T10:48:43.382Z,31.30
2018-04-22T10:51:11.607Z,31.80
2018-04-22T10:53:39.892Z,32.10
2018-04-22T10:56:08.150Z,31.60
2018-04-22T10:58:36.389Z,32.00
2018-04-22T11:01:05.403Z,32.40
2018-04-22T11:03:33.653Z,32.40
2018-04-22T11:06:01.906Z,32.90
2018-04-22T11:08:30.241Z,32.90
2018-04-22T11:10:59.252Z,32.80
2018-04-22T11:13:27.511Z,32.80
2018-04-22T11:15:56.562Z,31.80
2018-04-22T11:18:24.795Z,31.80
2018-04-22T11:20:53.808Z,31.20
2018-04-22T11:23:22.088Z,31.20
2018-04-22T11:25:51.172Z,31.60
2018-04-22T11:28:20.192Z,31.90
2018-04-22T11:30:48.466Z,31.90
2018-04-22T11:33:16.855Z,31.30
2018-04-22T11:35:45.842Z,29.90
2018-04-22T11:38:14.871Z,29.00
2018-04-22T11:40:43.145Z,29.00
2018-04-22T11:43:11.392Z,29.10
2018-04-22T11:45:40.424Z,29.00
2018-04-22T11:48:08.674Z,28.70
2018-04-22T11:50:37.813Z,30.00
2018-04-22T11:53:06.780Z,30.00
2018-04-22T11:55:35.804Z,30.70
2018-04-22T11:58:04.052Z,30.70
2018-04-22T12:00:33.158Z,31.20
2018-04-22T12:03:02.896Z,30.80
2018-04-22T12:05:31.139Z,30.70
2018-04-22T12:08:00.157Z,32.00
2018-04-22T12:10:28.432Z,31.90
2018-04-22T12:12:57.429Z,33.20
2018-04-22T12:15:26.496Z,33.80
2018-04-22T12:17:55.474Z,33.70
2018-04-22T12:20:23.735Z,33.30
2018-04-22T12:22:51.977Z,34.00
2018-04-22T12:25:21.014Z,33.60
2018-04-22T12:27:49.271Z,33.60
2018-04-22T12:30:18.294Z,31.90
2018-04-22T12:32:46.534Z,31.90
2018-04-22T12:35:14.806Z,31.80
2018-04-22T12:37:43.042Z,31.20
2018-04-22T12:40:11.323Z,30.60
2018-04-22T12:42:39.563Z,30.60
2018-04-22T12:45:08.600Z,30.90
2018-04-22T12:47:36.856Z,30.90
2018-04-22T12:50:05.879Z,31.20
2018-04-22T12:52:34.111Z,31.10
2018-04-22T12:55:02.392Z,32.10
2018-04-22T12:57:30.644Z,32.90
2018-04-22T12:59:58.903Z,33.10
2018-04-22T13:02:27.129Z,33.70
2018-04-22T13:04:55.389Z,34.10
2018-04-22T13:07:23.636Z,34.20
2018-04-22T13:09:51.914Z,34.30
2018-04-22T13:12:20.146Z,34.60
2018-04-22T13:14:48.387Z,35.40
2018-04-22T13:17:16.664Z,34.90
2018-04-22T13:19:45.618Z,34.40
2018-04-22T13:22:13.911Z,35.00
2018-04-22T13:24:42.916Z,39.00
2018-04-22T13:27:11.956Z,37.10
2018-04-22T13:29:40.221Z,37.10
2018-04-22T13:32:08.494Z,37.50
2018-04-22T13:34:36.768Z,38.20
2018-04-22T13:37:05.801Z,40.20
2018-04-22T13:39:34.043Z,39.60
2018-04-22T13:42:03.425Z,41.20
2018-04-22T13:44:31.652Z,41.20
2018-04-22T13:46:59.922Z,43.00
2018-04-22T13:49:28.648Z,43.20
2018-04-22T13:51:56.910Z,43.10
2018-04-22T13:54:25.196Z,43.30
2018-04-22T13:56:53.444Z,43.70
2018-04-22T13:59:22.430Z,45.60
2018-04-22T14:01:50.684Z,45.60
2018-04-22T14:04:18.928Z,47.90
2018-04-22T14:06:47.191Z,57.30
2018-04-22T14:09:15.448Z,65.80
2018-04-22T14:11:43.717Z,66.50
2018-04-22T14:14:12.211Z,69.40
2018-04-22T14:16:41.035Z,67.20
2018-04-22T14:19:09.290Z,65.40
2018-04-22T14:21:37.568Z,67.50
2018-04-22T14:24:05.795Z,65.70
2018-04-22T14:26:34.048Z,67.00
2018-04-22T14:29:03.078Z,64.10
2018-04-22T14:31:31.407Z,64.20
2018-04-22T14:33:59.648Z,65.60
2018-04-22T14:36:27.988Z,67.00
2018-04-22T14:38:57.021Z,65.70
2018-04-22T14:41:25.548Z,65.50
2018-04-22T14:44:05.745Z,65.30
2018-04-22T14:46:34.037Z,62.40
2018-04-22T14:49:05.214Z,60.50
2018-04-22T14:51:34.279Z,60.00
2018-04-22T14:54:02.526Z,60.00
2018-04-22T14:56:31.101Z,59.60
2018-04-22T14:58:59.349Z,60.20
2018-04-22T15:01:28.224Z,60.60
2018-04-22T15:03:56.468Z,60.10
2018-04-22T15:06:24.745Z,60.80
2018-04-22T15:08:53.569Z,61.20
2018-04-22T15:11:23.023Z,61.70
2018-04-22T15:13:51.307Z,61.60
2018-04-22T15:16:19.591Z,62.00
2018-04-22T15:18:47.858Z,63.10
2018-04-22T15:21:16.093Z,64.60
2018-04-22T15:23:45.146Z,64.20
2018-04-22T15:26:13.417Z,64.10
2018-04-22T15:28:41.688Z,64.50
2018-04-22T15:31:09.951Z,61.00
2018-04-22T15:33:38.995Z,56.70
2018-04-22T15:36:07.255Z,56.70
2018-04-22T15:38:35.535Z,58.80
2018-04-22T15:41:03.781Z,58.90
2018-04-22T15:43:32.815Z,60.00
2018-04-22T15:46:01.060Z,60.00
2018-04-22T15:48:30.073Z,62.00
2018-04-22T15:50:58.328Z,61.90
2018-04-22T15:53:26.599Z,61.50
2018-04-22T15:55:54.841Z,62.70
2018-04-22T15:58:23.082Z,61.50
2018-04-22T16:00:52.089Z,60.40
2018-04-22T16:03:21.164Z,60.00
2018-04-22T16:05:49.425Z,60.00
2018-04-22T16:08:17.721Z,61.00
2018-04-22T16:10:45.900Z,62.00
2018-04-22T16:13:14.153Z,60.80
2018-04-22T16:15:42.399Z,61.30
2018-04-22T16:18:11.448Z,61.60
2018-04-22T16:20:39.698Z,61.50
2018-04-22T16:23:07.979Z,62.00
2018-04-22T16:25:36.227Z,62.50
2018-04-22T16:28:05.266Z,63.00
2018-04-22T16:30:33.485Z,62.90
2018-04-22T16:33:01.756Z,63.50
2018-04-22T16:35:30.011Z,64.30
2018-04-22T16:37:58.291Z,64.70
2018-04-22T16:40:26.520Z,65.00
2018-04-22T16:42:54.775Z,64.80
2018-04-22T16:45:23.019Z,65.00
2018-04-22T16:47:51.748Z,65.30
2018-04-22T16:50:20.009Z,65.70
2018-04-22T16:52:48.274Z,66.30
2018-04-22T16:55:17.089Z,67.00
2018-04-22T16:57:46.813Z,66.50
2018-04-22T17:00:15.672Z,66.50
2018-04-22T17:02:43.947Z,66.40
2018-04-22T17:05:12.961Z,67.70
2018-04-22T17:07:41.292Z,67.70
2018-04-22T17:10:09.549Z,67.00
2018-04-22T17:12:37.776Z,66.90
2018-04-22T17:15:06.799Z,67.50
2018-04-22T17:17:35.680Z,67.50
2018-04-22T17:20:03.977Z,67.70
2018-04-22T17:22:32.221Z,67.50
2018-04-22T17:25:00.508Z,67.00
2018-04-22T17:27:28.760Z,64.90
2018-04-22T17:29:57.029Z,64.10
2018-04-22T17:32:25.276Z,62.20
2018-04-22T17:34:53.513Z,61.10
2018-04-22T17:37:21.747Z,59.70
2018-04-22T17:39:49.987Z,59.80
2018-04-22T17:42:18.236Z,58.60
2018-04-22T17:44:46.504Z,58.90
2018-04-22T17:47:14.752Z,58.60
2018-04-22T17:49:43.756Z,57.40
2018-04-22T17:52:11.996Z,57.40
2018-04-22T17:54:40.237Z,57.00
2018-04-22T17:57:08.507Z,57.20
2018-04-22T17:59:36.778Z,56.60
2018-04-22T18:02:05.035Z,56.40
2018-04-22T18:04:34.049Z,56.20
2018-04-22T18:07:03.085Z,55.90
2018-04-22T18:09:31.292Z,55.90
2018-04-22T18:11:59.527Z,55.90
2018-04-22T18:14:27.824Z,55.80
2018-04-22T18:16:56.018Z,55.70
2018-04-22T18:19:24.291Z,55.70
2018-04-22T18:21:52.987Z,55.50
2018-04-22T18:24:21.252Z,55.50
2018-04-22T18:26:50.467Z,55.30
2018-04-22T18:29:19.432Z,55.30
2018-04-22T18:31:47.671Z,55.60
2018-04-22T18:34:16.811Z,55.70
2018-04-22T18:36:45.812Z,56.00
2018-04-22T18:39:14.148Z,56.00
2018-04-22T18:41:42.407Z,56.20
2018-04-22T18:44:10.652Z,56.40
2018-04-22T18:46:39.710Z,57.40
2018-04-22T18:49:07.981Z,57.40
2018-04-22T18:51:36.208Z,58.60
2018-04-22T18:54:05.248Z,58.90
2018-04-22T18:56:33.489Z,58.90
2018-04-22T18:59:02.511Z,60.70
2018-04-22T19:01:30.746Z,60.70
2018-04-22T19:03:59.037Z,61.40
2018-04-22T19:06:28.049Z,62.90
2018-04-22T19:08:57.075Z,63.60
2018-04-22T19:11:25.975Z,63.50
2018-04-22T19:13:54.321Z,64.60
2018-04-22T19:16:23.348Z,65.50
2018-04-22T19:18:51.640Z,65.50
2018-04-22T19:21:19.921Z,65.20
2018-04-22T19:23:48.167Z,65.10
2018-04-22T19:26:17.197Z,65.40
2018-04-22T19:28:45.436Z,65.30
2018-04-22T19:31:14.444Z,66.30
2018-04-22T19:33:44.320Z,66.90
2018-04-22T19:36:12.568Z,66.80
2018-04-22T19:38:40.825Z,67.40
2018-04-22T19:41:09.868Z,68.70
2018-04-22T19:43:38.560Z,68.70
2018-04-22T19:46:06.804Z,69.30
2018-04-22T19:48:36.528Z,70.00
2018-04-22T19:51:04.795Z,70.00
2018-04-22T19:53:33.781Z,70.70
2018-04-22T19:56:02.820Z,70.80
2018-04-22T19:58:31.613Z,70.60
2018-04-22T20:00:59.860Z,72.00
2018-04-22T20:03:28.889Z,71.20
2018-04-22T20:05:57.165Z,71.20
2018-04-22T20:08:25.424Z,71.50
2018-04-22T20:10:53.680Z,71.60
2018-04-22T20:13:22.559Z,71.80
2018-04-22T20:15:50.822Z,72.80
2018-04-22T20:18:19.413Z,72.20
2018-04-22T20:20:47.672Z,72.00
2018-04-22T20:23:15.916Z,73.00
2018-04-22T20:25:44.209Z,73.20
2018-04-22T20:28:12.436Z,73.50
2018-04-22T20:30:40.715Z,73.70
2018-04-22T20:33:08.942Z,73.80
2018-04-22T20:35:38.699Z,73.80
2018-04-22T20:38:06.913Z,73.80
2018-04-22T20:40:35.161Z,74.30
2018-04-22T20:43:03.429Z,74.60
2018-04-22T20:45:31.722Z,75.00
2018-04-22T20:47:59.965Z,75.00
2018-04-22T20:50:28.984Z,75.50
2018-04-22T20:52:57.228Z,76.20
2018-04-22T20:55:25.528Z,76.70
2018-04-22T20:57:54.553Z,76.50
2018-04-22T21:00:22.812Z,77.30
2018-04-22T21:02:51.855Z,76.80
2018-04-22T21:05:20.283Z,76.80
2018-04-22T21:07:49.326Z,77.30
2018-04-22T21:10:18.156Z,77.40
2018-04-22T21:12:46.425Z,77.70
2018-04-22T21:15:14.881Z,77.80
2018-04-22T21:17:43.114Z,78.40
2018-04-22T21:20:11.356Z,78.50
2018-04-22T21:22:39.614Z,78.80
2018-04-22T21:25:07.887Z,79.10
2018-04-22T21:27:36.978Z,79.50
2018-04-22T21:30:05.398Z,79.30
2018-04-22T21:32:33.676Z,80.20
2018-04-22T21:35:01.964Z,80.40
2018-04-22T21:37:30.249Z,80.20
2018-04-22T21:39:59.267Z,80.50
2018-04-22T21:42:28.381Z,80.80
2018-04-22T21:44:56.629Z,81.20
2018-04-22T21:47:24.895Z,81.10
2018-04-22T21:49:53.146Z,81.20
2018-04-22T21:52:21.383Z,81.50
2018-04-22T21:54:49.645Z,81.50
2018-04-22T21:57:18.488Z,81.10
2018-04-22T21:59:46.750Z,80.80
2018-04-22T22:02:15.021Z,81.00
2018-04-22T22:04:43.278Z,80.90
2018-04-22T22:07:11.554Z,80.60
2018-04-22T22:09:40.248Z,80.50
2018-04-22T22:12:08.535Z,80.60
2018-04-22T22:14:36.799Z,81.20
2018-04-22T22:17:06.095Z,81.90
2018-04-22T22:19:35.117Z,82.30
2018-04-22T22:22:03.369Z,82.30
2018-04-22T22:24:32.392Z,82.70
2018-04-22T22:27:01.619Z,82.60
2018-04-22T22:29:30.608Z,82.90
2018-04-22T22:31:58.876Z,82.70
2018-04-22T22:34:27.113Z,82.40
2018-04-22T22:36:55.389Z,82.40
2018-04-22T22:39:23.628Z,82.60
2018-04-22T22:41:52.000Z,82.90
2018-04-22T22:44:21.096Z,83.20
2018-04-22T22:46:49.358Z,83.20
2018-04-22T22:49:18.380Z,84.00
2018-04-22T22:51:46.640Z,84.00
2018-04-22T22:54:15.658Z,84.00
2018-04-22T22:56:43.956Z,83.90
2018-04-22T22:59:12.220Z,84.40
2018-04-22T23:01:41.226Z,84.00
2018-04-22T23:04:09.479Z,84.00
2018-04-22T23:06:38.530Z,84.00
2018-04-22T23:09:06.765Z,84.00
2018-04-22T23:11:35.784Z,84.80
2018-04-22T23:14:04.032Z,84.80
2018-04-22T23:16:33.051Z,84.80
2018-04-22T23:19:01.332Z,84.80
2018-04-22T23:21:29.629Z,84.70
2018-04-22T23:23:57.890Z,85.00
2018-04-22T23:26:26.165Z,85.00
2018-04-22T23:28:55.216Z,85.90
2018-04-22T23:31:24.056Z,85.90
2018-04-22T23:33:53.081Z,86.10
2018-04-22T23:36:21.332Z,86.10
2018-04-22T23:38:50.340Z,86.00
2018-04-22T23:41:19.356Z,86.40
2018-04-22T23:43:48.292Z,86.30
2018-04-22T23:46:16.533Z,86.30
2018-04-22T23:48:44.787Z,86.10
2018-04-22T23:51:13.872Z,86.50
2018-04-22T23:53:42.128Z,86.50
2018-04-22T23:56:10.402Z,86.40
2018-04-22T23:58:38.672Z,86.10
